Time;durP1;ratioP1;P1;durP2;ratioP2;P2;SDS_P1;SDS_P2;PMS_P1;PMS_P2;Temp;Humidity;BMP_temperature;BMP_pressure;BME280_temperature;BME280_humidity;BME280_pressure;Samples;Min_cycle;Max_cycle;Signal;HPM_P1;HPM_P2
2021/11/10 00:02:20;;;;;;;;;;;;;;;;;;5010584;28;20385;-66
2021/11/10 00:04:47;;;;;;;;;;;;;;;;;;5011886;28;19936;-66
2021/11/10 00:07:14;;;;;;;;;;;;;;;;;;5012029;28;19926;-66
2021/11/10 00:09:41;;;;;;;;;;;;;;;;;;5015510;28;19925;-66
2021/11/10 00:12:08;;;;;;;;;;;;;;;;;;5013337;28;19930;-66
2021/11/10 00:14:35;;;;;;;;;;;;;;;;;;5016670;28;19933;-66
2021/11/10 00:17:02;;;;;;;;;;;;;;;;;;5011627;28;19933;-67
2021/11/10 00:19:29;;;;;;;;;;;;;;;;;;5011460;28;19936;-67
2021/11/10 00:21:56;;;;;;;;;;;;;;;;;;5012405;28;20309;-67
2021/11/10 00:24:22;;;;;;;;;;;;;;;;;;5008476;28;21142;-66
2021/11/10 00:26:49;;;;;;;;;;;;;;;;;;5009023;28;19937;-65
2021/11/10 00:29:16;;;;;;;;;;;;;;;;;;5005592;28;19930;-66
2021/11/10 00:31:43;;;;;;;;;;;;;;;;;;5010647;28;19926;-66
2021/11/10 00:34:10;;;;;;;;;;;;;;;;;;5009360;28;19982;-68
2021/11/10 00:36:37;;;;;;;;;;;;;;;;;;5010310;28;20373;-66
2021/11/10 00:39:04;;;;;;;;;;;;;;;;;;5011493;28;19926;-66
2021/11/10 00:41:31;;;;;;;;;;;;;;;;;;5010991;28;19933;-66
2021/11/10 00:44:00;;;;;;;;;;;;;;;;;;5015642;28;19933;-66
2021/11/10 00:46:27;;;;;;;;;;;;;;;;;;5015552;28;20016;-66
2021/11/10 00:48:54;;;;;;;;;;;;;;;;;;5016316;28;19936;-66
2021/11/10 00:51:21;;;;;;;;;;;;;;;;;;5015007;28;19925;-67
2021/11/10 00:53:48;;;;;;;;;;;;;;;;;;5018085;28;20386;-66
2021/11/10 00:56:14;;;;;;;;;;;;;;;;;;5016673;28;19926;-67
2021/11/10 00:58:41;;;;;;;;;;;;;;;;;;5015276;28;19925;-66
2021/11/10 01:01:08;;;;;;;;;;;;;;;;;;5012227;28;19932;-67
2021/11/10 01:03:35;;;;;;;;;;;;;;;;;;5015907;28;19926;-66
2021/11/10 01:06:02;;;;;;;;;;;;;;;;;;5015587;28;19932;-67
2021/11/10 01:08:29;;;;;;;;;;;;;;;;;;5015338;28;19925;-66
2021/11/10 01:10:56;;;;;;;;;;;;;;;;;;5013605;28;19926;-66
2021/11/10 01:13:23;;;;;;;;;;;;;;;;;;5015930;28;19933;-66
2021/11/10 01:15:50;;;;;;;;;;;;;;;;;;5014227;28;19933;-65
2021/11/10 01:18:17;;;;;;;;;;;;;;;;;;5015432;28;19926;-66
2021/11/10 01:20:44;;;;;;;;;;;;;;;;;;5014092;28;19926;-66
2021/11/10 01:23:11;;;;;;;;;;;;;;;;;;5015164;28;19948;-65
2021/11/10 01:25:38;;;;;;;;;;;;;;;;;;5012462;28;20233;-66
2021/11/10 01:28:06;;;;;;;;;;;;;;;;;;5015395;28;19983;-66
2021/11/10 01:30:33;;;;;;;;;;;;;;;;;;5014247;28;19926;-66
2021/11/10 01:32:59;;;;;;;;;;;;;;;;;;5016082;28;20254;-66
2021/11/10 01:35:26;;;;;;;;;;;;;;;;;;5012767;28;19933;-66
2021/11/10 01:37:53;;;;;;;;;;;;;;;;;;5013553;28;19949;-66
2021/11/10 01:40:20;;;;;;;;;;;;;;;;;;5014012;28;19933;-65
2021/11/10 01:42:47;;;;;;;;;;;;;;;;;;5014380;28;19932;-65
2021/11/10 01:45:14;;;;;;;;;;;;;;;;;;5015040;28;20000;-66
2021/11/10 01:47:41;;;;;;;;;;;;;;;;;;5016572;28;19932;-66
2021/11/10 01:50:08;;;;;;;;;;;;;;;;;;5015084;28;19926;-66
2021/11/10 01:52:35;;;;;;;;;;;;;;;;;;5016484;28;19925;-66
2021/11/10 01:55:02;;;;;;;;;;;;;;;;;;5014175;28;20017;-66
2021/11/10 01:57:29;;;;;;;;;;;;;;;;;;5015827;28;19925;-66
2021/11/10 01:59:56;;;;;;;;;;;;;;;;;;5015443;28;19925;-67
2021/11/10 02:02:25;;;;;;;;;;;;;;;;;;5015174;28;19931;-67
2021/11/10 02:04:52;;;;;;;;;;;;;;;;;;5013996;28;19987;-66
2021/11/10 02:07:19;;;;;;;;;;;;;;;;;;5012548;28;20000;-67
2021/11/10 02:09:46;;;;;;;;;;;;;;;;;;5014094;28;19933;-67
2021/11/10 02:12:13;;;;;;;;;;;;;;;;;;5014795;28;20393;-66
2021/11/10 02:14:39;;;;;;;;;;;;;;;;;;5014772;28;19941;-65
2021/11/10 02:17:06;;;;;;;;;;;;;;;;;;5013467;28;19925;-67
2021/11/10 02:19:34;;;;;;;;;;;;;;;;;;5012764;28;20476;-66
2021/11/10 02:22:01;;;;;;;;;;;;;;;;;;5015653;28;19926;-69
2021/11/10 02:24:28;;;;;;;;;;;;;;;;;;5017755;28;19925;-66
2021/11/10 02:26:55;;;;;;;;;;;;;;;;;;5014662;28;19929;-66
2021/11/10 02:29:22;;;;;;;;;;;;;;;;;;5013175;28;19933;-67
2021/11/10 02:31:49;;;;;;;;;;;;;;;;;;5013490;28;19926;-66
2021/11/10 02:34:16;;;;;;;;;;;;;;;;;;5011610;28;19932;-66
2021/11/10 02:36:44;;;;;;;;;;;;;;;;;;5013025;28;19925;-67
2021/11/10 02:39:11;;;;;;;;;;;;;;;;;;5013625;28;19926;-67
2021/11/10 02:41:38;;;;;;;;;;;;;;;;;;5013960;28;19926;-67
2021/11/10 02:44:06;;;;;;;;;;;;;;;;;;5013780;28;19932;-67
2021/11/10 02:46:33;;;;;;;;;;;;;;;;;;5009562;28;19926;-67
2021/11/10 02:49:00;;;;;;;;;;;;;;;;;;5012444;28;19926;-67
2021/11/10 02:51:26;;;;;;;;;;;;;;;;;;5011598;28;19925;-67
2021/11/10 02:53:53;;;;;;;;;;;;;;;;;;5012757;28;20290;-67
2021/11/10 02:56:20;;;;;;;;;;;;;;;;;;5012536;28;20406;-67
2021/11/10 02:58:47;;;;;;;;;;;;;;;;;;5011942;28;19932;-68
2021/11/10 03:01:14;;;;;;;;;;;;;;;;;;5013429;28;19926;-67
2021/11/10 03:03:41;;;;;;;;;;;;;;;;;;5014643;28;19948;-67
2021/11/10 03:06:08;;;;;;;;;;;;;;;;;;5013244;28;19925;-68
2021/11/10 03:08:38;;;;;;;;;;;;;;;;;;5011783;28;19926;-68
2021/11/10 03:11:05;;;;;;;;;;;;;;;;;;5012697;28;19925;-67
2021/11/10 03:13:33;;;;;;;;;;;;;;;;;;5013813;28;19965;-67
2021/11/10 03:15:59;;;;;;;;;;;;;;;;;;5013132;28;19964;-67
2021/11/10 03:18:26;;;;;;;;;;;;;;;;;;5013229;28;19925;-66
2021/11/10 03:20:53;;;;;;;;;;;;;;;;;;5013126;28;19949;-67
2021/11/10 03:23:21;;;;;;;;;;;;;;;;;;5017092;28;19949;-67
2021/11/10 03:25:48;;;;;;;;;;;;;;;;;;5014200;28;19926;-67
2021/11/10 03:28:15;;;;;;;;;;;;;;;;;;5013367;28;20020;-67
2021/11/10 03:30:42;;;;;;;;;;;;;;;;;;5006610;28;19925;-67
2021/11/10 03:33:09;;;;;;;;;;;;;;;;;;5014462;28;19940;-67
2021/11/10 03:35:36;;;;;;;;;;;;;;;;;;5014430;28;19925;-67
2021/11/10 03:38:03;;;;;;;;;;;;;;;;;;5014376;28;19968;-66
2021/11/10 03:40:30;;;;;;;;;;;;;;;;;;5011019;28;20016;-67
2021/11/10 03:42:57;;;;;;;;;;;;;;;;;;5026951;22;19925;31
2021/11/10 03:45:24;;;;;;;;;;;;;;;;;;5028435;28;20023;-62
2021/11/10 03:47:51;;;;;;;;;;;;;;;;;;5023676;28;19926;-62
2021/11/10 03:50:18;;;;;;;;;;;;;;;;;;5023727;28;19941;-61
2021/11/10 03:52:45;;;;;;;;;;;;;;;;;;5015962;28;19925;-62
2021/11/10 03:55:12;;;;;;;;;;;;;;;;;;5024518;28;19932;-60
2021/11/10 03:57:39;;;;;;;;;;;;;;;;;;5018995;28;19936;-62
2021/11/10 04:00:06;;;;;;;;;;;;;;;;;;5019405;28;19937;-62
2021/11/10 04:02:33;;;;;;;;;;;;;;;;;;5020949;28;19925;-62
2021/11/10 04:05:00;;;;;;;;;;;;;;;;;;5020481;28;19925;-60
2021/11/10 04:07:27;;;;;;;;;;;;;;;;;;5022979;28;19932;-62
2021/11/10 04:09:54;;;;;;;;;;;;;;;;;;5023396;28;20273;-62
2021/11/10 04:12:21;;;;;;;;;;;;;;;;;;5020879;28;19929;-61
2021/11/10 04:14:48;;;;;;;;;;;;;;;;;;5020370;28;20032;-62
2021/11/10 04:17:15;;;;;;;;;;;;;;;;;;5025360;28;19925;-60
2021/11/10 04:19:42;;;;;;;;;;;;;;;;;;5023476;28;19925;-62
2021/11/10 04:22:09;;;;;;;;;;;;;;;;;;5025660;28;20400;-62
2021/11/10 04:24:35;;;;;;;;;;;;;;;;;;5028182;28;19925;-62
2021/11/10 04:27:03;;;;;;;;;;;;;;;;;;5036669;28;19933;-62
2021/11/10 04:29:30;;;;;;;;;;;;;;;;;;5025962;28;19925;-62
2021/11/10 04:31:57;;;;;;;;;;;;;;;;;;5015989;28;19932;-62
2021/11/10 04:34:24;;;;;;;;;;;;;;;;;;5022764;28;19932;-61
2021/11/10 04:36:50;;;;;;;;;;;;;;;;;;5022242;28;19926;-62
2021/11/10 04:39:17;;;;;;;;;;;;;;;;;;5025566;28;20012;-60
2021/11/10 04:41:44;;;;;;;;;;;;;;;;;;5021939;28;19925;-62
2021/11/10 04:44:11;;;;;;;;;;;;;;;;;;5057852;22;20358;-67
2021/11/10 04:46:38;;;;;;;;;;;;;;;;;;5067673;28;19925;-67
2021/11/10 04:49:05;;;;;;;;;;;;;;;;;;5070834;28;19931;-66
2021/11/10 04:51:32;;;;;;;;;;;;;;;;;;5069597;28;19924;-66
2021/11/10 04:54:06;;;;;;;;;;;;;;;;;;5063155;28;20006;-67
2021/11/10 04:56:33;;;;;;;;;;;;;;;;;;5061330;28;19924;-66
2021/11/10 04:59:00;;;;;;;;;;;;;;;;;;5055018;28;19940;-66
2021/11/10 05:01:27;;;;;;;;;;;;;;;;;;5052480;28;19948;-66
2021/11/10 05:03:53;;;;;;;;;;;;;;;;;;5057703;28;19935;-66
2021/11/10 05:06:20;;;;;;;;;;;;;;;;;;5055059;28;20807;-66
2021/11/10 05:08:47;;;;;;;;;;;;;;;;;;5051984;28;19932;-67
2021/11/10 05:11:14;;;;;;;;;;;;;;;;;;5055739;28;19929;-66
2021/11/10 05:13:41;;;;;;;;;;;;;;;;;;5050965;28;20039;-67
2021/11/10 05:16:08;;;;;;;;;;;;;;;;;;5055770;28;19931;-67
2021/11/10 05:18:35;;;;;;;;;;;;;;;;;;5058731;28;19925;-66
2021/11/10 05:21:02;;;;;;;;;;;;;;;;;;5053553;28;19935;-66
2021/11/10 05:23:29;;;;;;;;;;;;;;;;;;5049452;28;20274;-66
2021/11/10 05:25:56;;;;;;;;;;;;;;;;;;5052929;28;20308;-67
2021/11/10 05:28:23;;;;;;;;;;;;;;;;;;5054608;28;19943;-67
2021/11/10 05:30:50;;;;;;;;;;;;;;;;;;5061425;28;19925;-66
2021/11/10 05:33:17;;;;;;;;;;;;;;;;;;5060543;28;19940;-67
2021/11/10 05:35:44;;;;;;;;;;;;;;;;;;5054992;28;19924;-66
2021/11/10 05:38:11;;;;;;;;;;;;;;;;;;5046905;28;19932;-66
2021/11/10 05:40:38;;;;;;;;;;;;;;;;;;5052208;28;19931;-68
2021/11/10 05:43:05;;;;;;;;;;;;;;;;;;5052972;28;19935;-68
2021/11/10 05:45:32;;;;;;;;;;;;;;;;;;5053078;28;19951;-68
2021/11/10 05:47:58;;;;;;;;;;;;;;;;;;5051915;28;19928;-66
2021/11/10 05:50:25;;;;;;;;;;;;;;;;;;5049997;28;19932;-66
2021/11/10 05:52:52;;;;;;;;;;;;;;;;;;5052135;28;20016;-66
2021/11/10 05:55:22;;;;;;;;;;;;;;;;;;5061943;28;19935;-66
2021/11/10 05:57:50;;;;;;;;;;;;;;;;;;5059199;28;19939;-66
2021/11/10 06:00:17;;;;;;;;;;;;;;;;;;5050690;28;20391;-66
2021/11/10 06:02:44;;;;;;;;;;;;;;;;;;5047598;28;20385;-67
2021/11/10 06:05:11;;;;;;;;;;;;;;;;;;5052490;28;20316;-66
2021/11/10 06:07:38;;;;;;;;;;;;;;;;;;5052517;28;20297;-67
2021/11/10 06:10:05;;;;;;;;;;;;;;;;;;5049734;28;20265;-66
2021/11/10 06:12:32;;;;;;;;;;;;;;;;;;5047895;28;20303;-67
2021/11/10 06:14:59;;;;;;;;;;;;;;;;;;5057158;28;20381;-65
2021/11/10 06:17:26;;;;;;;;;;;;;;;;;;5059155;28;19925;-66
2021/11/10 06:19:53;;;;;;;;;;;;;;;;;;5050542;28;19932;-66
2021/11/10 06:22:20;;;;;;;;;;;;;;;;;;5062855;28;19936;-66
2021/11/10 06:24:47;;;;;;;;;;;;;;;;;;5063174;28;19925;-66
2021/11/10 06:27:13;;;;;;;;;;;;;;;;;;5072088;28;20295;-65
2021/11/10 06:29:40;;;;;;;;;;;;;;;;;;5060102;28;19929;-68
2021/11/10 06:32:07;;;;;;;;;;;;;;;;;;5053522;28;19928;-67
2021/11/10 06:34:34;;;;;;;;;;;;;;;;;;5060052;28;20393;-65
2021/11/10 06:37:01;;;;;;;;;;;;;;;;;;5059034;28;19929;-67
2021/11/10 06:39:28;;;;;;;;;;;;;;;;;;5064927;28;19932;-67
2021/11/10 06:41:55;;;;;;;;;;;;;;;;;;5062776;28;19931;-67
2021/11/10 06:44:22;;;;;;;;;;;;;;;;;;5041038;28;20312;-68
2021/11/10 06:46:49;;;;;;;;;;;;;;;;;;5062972;28;19979;-67
2021/11/10 06:49:16;;;;;;;;;;;;;;;;;;5061633;28;19924;-66
2021/11/10 06:51:43;;;;;;;;;;;;;;;;;;5056687;28;20074;-67
2021/11/10 06:54:10;;;;;;;;;;;;;;;;;;5051363;28;20409;-66
2021/11/10 06:56:37;;;;;;;;;;;;;;;;;;5062320;28;19925;-67
2021/11/10 06:59:04;;;;;;;;;;;;;;;;;;5047775;28;19939;-65
2021/11/10 07:01:31;;;;;;;;;;;;;;;;;;5049430;28;20304;-65
2021/11/10 07:03:58;;;;;;;;;;;;;;;;;;5054935;28;20316;-65
2021/11/10 07:06:25;;;;;;;;;;;;;;;;;;5051350;28;19928;-64
2021/11/10 07:08:52;;;;;;;;;;;;;;;;;;5059834;28;19933;-65
2021/11/10 07:11:19;;;;;;;;;;;;;;;;;;5050710;28;19931;-66
2021/11/10 07:13:47;;;;;;;;;;;;;;;;;;5056553;28;19925;-67
2021/11/10 07:16:13;;;;;;;;;;;;;;;;;;5048755;28;20038;-66
2021/11/10 07:18:40;;;;;;;;;;;;;;;;;;5043589;28;20016;-67
2021/11/10 07:21:08;;;;;;;;;;;;;;;;;;5044396;28;19925;-67
2021/11/10 07:23:35;;;;;;;;;;;;;;;;;;5045601;28;20392;-67
2021/11/10 07:26:02;;;;;;;;;;;;;;;;;;5048133;28;20111;-66
2021/11/10 07:28:29;;;;;;;;;;;;;;;;;;5050248;28;19924;-66
2021/11/10 07:30:57;;;;;;;;;;;;;;;;;;5048302;28;20289;-67
2021/11/10 07:33:23;;;;;;;;;;;;;;;;;;5048764;28;19955;-65
2021/11/10 07:35:50;;;;;;;;;;;;;;;;;;5045563;28;19937;-66
2021/11/10 07:38:19;;;;;;;;;;;;;;;;;;5052182;28;20444;-67
2021/11/10 07:40:47;;;;;;;;;;;;;;;;;;5050967;28;20461;-68
2021/11/10 07:43:14;;;;;;;;;;;;;;;;;;5043765;28;19936;-66
2021/11/10 07:45:49;;;;;;;;;;;;;;;;;;5049824;28;19929;-66
2021/11/10 07:48:16;;;;;;;;;;;;;;;;;;5053646;28;19924;-67
2021/11/10 07:50:43;;;;;;;;;;;;;;;;;;5050289;28;19939;-68
2021/11/10 07:53:10;;;;;;;;;;;;;;;;;;5048461;28;19929;-66
2021/11/10 07:55:37;;;;;;;;;;;;;;;;;;5050728;28;19932;-68
2021/11/10 07:58:04;;;;;;;;;;;;;;;;;;5050639;28;20296;-67
2021/11/10 08:00:30;;;;;;;;;;;;;;;;;;5037273;28;19932;-68
2021/11/10 08:02:57;;;;;;;;;;;;;;;;;;5037877;28;19932;-68
2021/11/10 08:05:24;;;;;;;;;;;;;;;;;;5049563;28;19947;-68
2021/11/10 08:07:51;;;;;;;;;;;;;;;;;;5034680;28;19929;-69
2021/11/10 08:10:18;;;;;;;;;;;;;;;;;;5047363;28;19931;-67
2021/11/10 08:12:47;;;;;;;;;;;;;;;;;;5050135;28;19928;-67
2021/11/10 08:15:14;;;;;;;;;;;;;;;;;;5037362;28;19924;-68
2021/11/10 08:17:41;;;;;;;;;;;;;;;;;;5054886;28;19926;-67
2021/11/10 08:20:08;;;;;;;;;;;;;;;;;;5039005;28;19939;-69
2021/11/10 08:22:35;;;;;;;;;;;;;;;;;;5040906;28;20372;-67
2021/11/10 08:25:02;;;;;;;;;;;;;;;;;;5035843;28;19932;-68
2021/11/10 08:27:29;;;;;;;;;;;;;;;;;;5038192;28;20316;-67
2021/11/10 08:29:56;;;;;;;;;;;;;;;;;;5045044;28;20071;-67
2021/11/10 08:32:23;;;;;;;;;;;;;;;;;;5045611;28;19992;-67
2021/11/10 08:34:50;;;;;;;;;;;;;;;;;;5048071;28;19929;-66
2021/11/10 08:37:17;;;;;;;;;;;;;;;;;;5048683;28;19924;-67
2021/11/10 08:39:44;;;;;;;;;;;;;;;;;;5046801;28;20402;-66
2021/11/10 08:42:11;;;;;;;;;;;;;;;;;;5049823;28;19931;-67
2021/11/10 08:44:41;;;;;;;;;;;;;;;;;;5044927;28;19928;-65
2021/11/10 08:47:08;;;;;;;;;;;;;;;;;;5044677;28;19933;-66
2021/11/10 08:49:35;;;;;;;;;;;;;;;;;;5047508;28;19928;-66
2021/11/10 08:52:02;;;;;;;;;;;;;;;;;;5050667;28;19962;-67
2021/11/10 08:54:29;;;;;;;;;;;;;;;;;;5049756;28;19939;-66
2021/11/10 08:56:56;;;;;;;;;;;;;;;;;;5046169;28;19947;-67
2021/11/10 08:59:23;;;;;;;;;;;;;;;;;;5046171;28;19929;-67
2021/11/10 09:01:50;;;;;;;;;;;;;;;;;;5035919;28;21342;-67
2021/11/10 09:04:17;;;;;;;;;;;;;;;;;;5050358;28;19931;-67
2021/11/10 09:06:44;;;;;;;;;;;;;;;;;;5044687;28;19948;-68
2021/11/10 09:09:11;;;;;;;;;;;;;;;;;;5042823;28;19933;-68
2021/11/10 09:11:38;;;;;;;;;;;;;;;;;;5049090;28;19928;-67
2021/11/10 09:14:05;;;;;;;;;;;;;;;;;;5048983;28;19975;-68
2021/11/10 09:16:32;;;;;;;;;;;;;;;;;;5039647;28;19929;-68
2021/11/10 09:18:59;;;;;;;;;;;;;;;;;;5042945;28;20388;-67
2021/11/10 09:21:26;;;;;;;;;;;;;;;;;;5049520;28;19925;-68
2021/11/10 09:23:52;;;;;;;;;;;;;;;;;;5050741;28;19990;-66
2021/11/10 09:26:19;;;;;;;;;;;;;;;;;;5050489;28;20012;-67
2021/11/10 09:28:46;;;;;;;;;;;;;;;;;;5052799;28;19925;-67
2021/11/10 09:31:13;;;;;;;;;;;;;;;;;;5046487;28;19929;-67
2021/11/10 09:33:41;;;;;;;;;;;;;;;;;;5044962;28;19925;-67
2021/11/10 09:36:08;;;;;;;;;;;;;;;;;;5048233;28;20523;-67
2021/11/10 09:38:35;;;;;;;;;;;;;;;;;;5050806;28;19940;-67
2021/11/10 09:41:02;;;;;;;;;;;;;;;;;;5048102;28;19931;-68
2021/11/10 09:43:29;;;;;;;;;;;;;;;;;;5050309;28;20304;-67
2021/11/10 09:45:56;;;;;;;;;;;;;;;;;;5051555;28;19932;-67
2021/11/10 09:48:23;;;;;;;;;;;;;;;;;;5049585;28;19939;-67
2021/11/10 09:50:50;;;;;;;;;;;;;;;;;;5052743;28;19925;-67
2021/11/10 09:53:17;;;;;;;;;;;;;;;;;;5048037;28;19924;-66
2021/11/10 09:55:44;;;;;;;;;;;;;;;;;;5047234;28;20597;-67
2021/11/10 09:58:11;;;;;;;;;;;;;;;;;;5045969;28;19952;-65
2021/11/10 10:00:38;;;;;;;;;;;;;;;;;;5037589;28;19925;-65
2021/11/10 10:03:05;;;;;;;;;;;;;;;;;;5047429;28;19925;-65
2021/11/10 10:05:32;;;;;;;;;;;;;;;;;;5040878;28;20319;-65
2021/11/10 10:07:59;;;;;;;;;;;;;;;;;;5047165;28;20037;-66
2021/11/10 10:10:26;;;;;;;;;;;;;;;;;;5054592;28;19924;-66
2021/11/10 10:12:53;;;;;;;;;;;;;;;;;;5057387;28;19924;-65
2021/11/10 10:15:21;;;;;;;;;;;;;;;;;;5054459;28;19997;-65
2021/11/10 10:17:48;;;;;;;;;;;;;;;;;;5056105;28;19928;-65
2021/11/10 10:20:15;;;;;;;;;;;;;;;;;;5054888;28;20298;-66
2021/11/10 10:22:42;;;;;;;;;;;;;;;;;;5040621;28;19925;-66
2021/11/10 10:25:09;;;;;;;;;;;;;;;;;;5050263;28;19935;-66
2021/11/10 10:27:36;;;;;;;;;;;;;;;;;;5048016;28;20416;-66
2021/11/10 10:30:03;;;;;;;;;;;;;;;;;;5051903;28;19929;-66
2021/11/10 10:32:30;;;;;;;;;;;;;;;;;;5049014;28;20376;-66
2021/11/10 10:34:57;;;;;;;;;;;;;;;;;;5051351;28;19929;-66
2021/11/10 10:37:24;;;;;;;;;;;;;;;;;;5049015;28;19925;-66
2021/11/10 10:39:51;;;;;;;;;;;;;;;;;;5050891;28;20418;-65
2021/11/10 10:42:18;;;;;;;;;;;;;;;;;;5047724;28;20335;-66
2021/11/10 10:44:45;;;;;;;;;;;;;;;;;;5053236;28;19944;-66
2021/11/10 10:47:12;;;;;;;;;;;;;;;;;;5034979;28;20359;-67
2021/11/10 10:49:40;;;;;;;;;;;;;;;;;;5040192;28;19925;-66
2021/11/10 10:52:07;;;;;;;;;;;;;;;;;;5050191;28;19987;-65
2021/11/10 10:54:34;;;;;;;;;;;;;;;;;;5042941;28;20278;-68
2021/11/10 10:57:02;;;;;;;;;;;;;;;;;;5039359;28;19940;-66
2021/11/10 10:59:29;;;;;;;;;;;;;;;;;;5047284;28;19925;-65
2021/11/10 11:01:56;;;;;;;;;;;;;;;;;;5037929;28;19924;-66
2021/11/10 11:04:24;;;;;;;;;;;;;;;;;;5043616;28;20214;-67
2021/11/10 11:06:50;;;;;;;;;;;;;;;;;;5043880;28;19928;-66
2021/11/10 11:09:18;;;;;;;;;;;;;;;;;;5041887;28;20312;-67
2021/11/10 11:11:50;;;;;;;;;;;;;;;;;;5048836;28;19932;-67
2021/11/10 11:14:26;;;;;;;;;;;;;;;;;;5049700;28;19924;-67
2021/11/10 11:17:04;;;;;;;;;;;;;;;;;;5050253;28;19982;-66
2021/11/10 11:19:33;;;;;;;;;;;;;;;;;;5048061;28;19924;-67
2021/11/10 11:22:00;;;;;;;;;;;;;;;;;;5045290;28;20217;-66
2021/11/10 11:24:27;;;;;;;;;;;;;;;;;;5041283;28;20027;-67
2021/11/10 11:26:54;;;;;;;;;;;;;;;;;;5041584;28;19932;-67
2021/11/10 11:29:21;;;;;;;;;;;;;;;;;;5045101;28;20012;-67
2021/11/10 11:31:48;;;;;;;;;;;;;;;;;;5047285;28;20288;-66
2021/11/10 11:34:15;;;;;;;;;;;;;;;;;;5045078;28;19925;-65
2021/11/10 11:36:42;;;;;;;;;;;;;;;;;;5047608;28;19925;-66
2021/11/10 11:39:09;;;;;;;;;;;;;;;;;;5044310;28;19925;-65
2021/11/10 11:41:36;;;;;;;;;;;;;;;;;;5033716;28;19933;-66
2021/11/10 11:44:03;;;;;;;;;;;;;;;;;;5040034;28;19935;-68
2021/11/10 11:46:30;;;;;;;;;;;;;;;;;;5031535;28;19929;-68
2021/11/10 11:48:57;;;;;;;;;;;;;;;;;;5044124;28;19955;-67
2021/11/10 11:51:24;;;;;;;;;;;;;;;;;;5039828;28;19928;-67
2021/11/10 11:53:51;;;;;;;;;;;;;;;;;;5040052;28;19925;-68
2021/11/10 11:56:19;;;;;;;;;;;;;;;;;;5035721;28;19946;-67
2021/11/10 11:58:47;;;;;;;;;;;;;;;;;;5042795;28;21338;-68
2021/11/10 12:01:15;;;;;;;;;;;;;;;;;;5039687;28;20678;-68
2021/11/10 12:03:42;;;;;;;;;;;;;;;;;;5021463;28;19928;-67
2021/11/10 12:06:09;;;;;;;;;;;;;;;;;;5038778;28;19925;-68
2021/11/10 12:08:36;;;;;;;;;;;;;;;;;;5043578;28;19925;-71
2021/11/10 12:11:03;;;;;;;;;;;;;;;;;;5045736;28;19933;-68
2021/11/10 12:13:30;;;;;;;;;;;;;;;;;;5038133;28;19925;-68
2021/11/10 12:15:57;;;;;;;;;;;;;;;;;;5043032;28;19929;-67
2021/11/10 12:18:24;;;;;;;;;;;;;;;;;;5049108;28;20007;-67
2021/11/10 12:20:51;;;;;;;;;;;;;;;;;;5045874;28;19925;-67
2021/11/10 12:23:18;;;;;;;;;;;;;;;;;;5044803;28;19925;-66
2021/11/10 12:25:45;;;;;;;;;;;;;;;;;;5046297;28;20304;-66
2021/11/10 12:28:12;;;;;;;;;;;;;;;;;;5048619;28;19959;-68
2021/11/10 12:30:39;;;;;;;;;;;;;;;;;;5045616;28;19929;-68
2021/11/10 12:33:06;;;;;;;;;;;;;;;;;;5048882;28;20881;-67
2021/11/10 12:35:33;;;;;;;;;;;;;;;;;;5041656;28;19929;-66
2021/11/10 12:38:00;;;;;;;;;;;;;;;;;;5049482;28;19925;-66
2021/11/10 12:40:28;;;;;;;;;;;;;;;;;;5052342;28;19928;-66
2021/11/10 12:42:55;;;;;;;;;;;;;;;;;;5042963;28;20510;-66
2021/11/10 12:45:24;;;;;;;;;;;;;;;;;;5047139;28;19956;-68
2021/11/10 12:47:51;;;;;;;;;;;;;;;;;;5041452;28;20026;-68
2021/11/10 12:50:18;;;;;;;;;;;;;;;;;;5040380;28;19925;-65
2021/11/10 12:52:45;;;;;;;;;;;;;;;;;;5041374;28;19932;-66
2021/11/10 12:55:11;;;;;;;;;;;;;;;;;;5043189;28;20859;-68
2021/11/10 12:57:38;;;;;;;;;;;;;;;;;;5035840;28;20426;-67
2021/11/10 13:00:05;;;;;;;;;;;;;;;;;;5044862;28;19929;-67
2021/11/10 13:02:32;;;;;;;;;;;;;;;;;;5033247;28;19924;-68
2021/11/10 13:05:01;;;;;;;;;;;;;;;;;;5043115;28;19925;-68
2021/11/10 13:07:31;;;;;;;;;;;;;;;;;;5043542;28;20075;-68
2021/11/10 13:09:58;;;;;;;;;;;;;;;;;;5049676;28;20401;-67
2021/11/10 13:12:25;;;;;;;;;;;;;;;;;;5045413;28;19931;-65
2021/11/10 13:14:54;;;;;;;;;;;;;;;;;;5044760;28;20019;-66
2021/11/10 13:17:21;;;;;;;;;;;;;;;;;;5050196;28;19925;-66
2021/11/10 13:19:49;;;;;;;;;;;;;;;;;;5048195;28;20090;-66
2021/11/10 13:22:16;;;;;;;;;;;;;;;;;;5050326;28;19932;-67
2021/11/10 13:24:43;;;;;;;;;;;;;;;;;;5046364;28;19932;-66
2021/11/10 13:27:09;;;;;;;;;;;;;;;;;;5049583;28;19931;-65
2021/11/10 13:29:36;;;;;;;;;;;;;;;;;;5047466;28;20551;-65
2021/11/10 13:32:03;;;;;;;;;;;;;;;;;;5047801;28;19933;-66
2021/11/10 13:34:30;;;;;;;;;;;;;;;;;;5044798;28;19925;-65
2021/11/10 13:36:59;;;;;;;;;;;;;;;;;;5050406;28;20050;-65
2021/11/10 13:39:26;;;;;;;;;;;;;;;;;;5043169;28;19924;-64
2021/11/10 13:41:55;;;;;;;;;;;;;;;;;;5052028;28;19968;-66
2021/11/10 13:44:23;;;;;;;;;;;;;;;;;;5050076;28;19932;-68
2021/11/10 13:46:50;;;;;;;;;;;;;;;;;;5045569;28;20002;-65
2021/11/10 13:49:17;;;;;;;;;;;;;;;;;;5048959;28;19924;-66
2021/11/10 13:51:44;;;;;;;;;;;;;;;;;;5041375;28;19932;-68
2021/11/10 13:54:11;;;;;;;;;;;;;;;;;;5048556;28;19986;-68
2021/11/10 13:56:37;;;;;;;;;;;;;;;;;;5046047;28;19929;-67
2021/11/10 13:59:04;;;;;;;;;;;;;;;;;;5053346;28;19925;-65
2021/11/10 14:01:31;;;;;;;;;;;;;;;;;;5049186;28;19925;-67
2021/11/10 14:03:58;;;;;;;;;;;;;;;;;;5048501;28;19992;-66
2021/11/10 14:06:25;;;;;;;;;;;;;;;;;;5048525;28;20011;-67
2021/11/10 14:08:52;;;;;;;;;;;;;;;;;;5048042;28;19932;-65
2021/11/10 14:11:19;;;;;;;;;;;;;;;;;;5045132;28;19933;-65
2021/11/10 14:13:46;;;;;;;;;;;;;;;;;;5039326;28;19932;-65
2021/11/10 14:16:15;;;;;;;;;;;;;;;;;;5039144;28;19925;-67
2021/11/10 14:18:42;;;;;;;;;;;;;;;;;;5039044;28;19925;-67
2021/11/10 14:21:09;;;;;;;;;;;;;;;;;;5051473;28;19932;-66
2021/11/10 14:23:36;;;;;;;;;;;;;;;;;;5053893;28;19932;-69
2021/11/10 14:26:02;;;;;;;;;;;;;;;;;;5041617;28;19925;-65
2021/11/10 14:28:29;;;;;;;;;;;;;;;;;;5053295;28;19935;-66
2021/11/10 14:31:01;;;;;;;;;;;;;;;;;;5052768;28;19929;-68
2021/11/10 14:33:32;;;;;;;;;;;;;;;;;;5059796;28;20385;-66
2021/11/10 14:36:00;;;;;;;;;;;;;;;;;;5050348;28;20407;-68
2021/11/10 14:38:28;;;;;;;;;;;;;;;;;;5050987;28;19924;-67
2021/11/10 14:41:01;;;;;;;;;;;;;;;;;;5052813;28;20408;-67
2021/11/10 14:43:33;;;;;;;;;;;;;;;;;;5055724;28;20037;-68
2021/11/10 14:46:00;;;;;;;;;;;;;;;;;;5049303;28;19952;-68
2021/11/10 14:48:27;;;;;;;;;;;;;;;;;;5049780;28;20276;-68
2021/11/10 14:50:54;;;;;;;;;;;;;;;;;;5051647;28;19939;-68
2021/11/10 14:53:21;;;;;;;;;;;;;;;;;;5043711;28;19933;-66
2021/11/10 14:55:48;;;;;;;;;;;;;;;;;;5044737;28;20020;-67
2021/11/10 14:58:15;;;;;;;;;;;;;;;;;;5041949;28;20313;-68
2021/11/10 15:00:42;;;;;;;;;;;;;;;;;;5047068;28;19925;-68
2021/11/10 15:03:09;;;;;;;;;;;;;;;;;;5047473;28;19932;-68
2021/11/10 15:05:36;;;;;;;;;;;;;;;;;;5049032;28;20171;-67
2021/11/10 15:08:03;;;;;;;;;;;;;;;;;;5046808;28;19925;-68
2021/11/10 15:10:33;;;;;;;;;;;;;;;;;;5049550;28;19929;-67
2021/11/10 15:13:00;;;;;;;;;;;;;;;;;;5051063;28;20385;-67
2021/11/10 15:15:28;;;;;;;;;;;;;;;;;;5042700;28;19931;-67
2021/11/10 15:17:55;;;;;;;;;;;;;;;;;;5043861;28;19971;-66
2021/11/10 15:20:22;;;;;;;;;;;;;;;;;;5041292;28;20047;-67
2021/11/10 15:22:49;;;;;;;;;;;;;;;;;;5051623;28;19931;-68
2021/11/10 15:25:16;;;;;;;;;;;;;;;;;;5054797;28;20210;-67
2021/11/10 15:27:45;;;;;;;;;;;;;;;;;;5050455;28;20280;-67
2021/11/10 15:30:12;;;;;;;;;;;;;;;;;;5048740;28;19933;-67
2021/11/10 15:32:39;;;;;;;;;;;;;;;;;;5047856;28;19924;-67
2021/11/10 15:35:06;;;;;;;;;;;;;;;;;;5050483;28;20557;-68
2021/11/10 15:37:37;;;;;;;;;;;;;;;;;;5048112;28;19925;-67
2021/11/10 15:40:04;;;;;;;;;;;;;;;;;;5051041;28;19925;-68
2021/11/10 15:42:31;;;;;;;;;;;;;;;;;;5036222;28;19925;-68
2021/11/10 15:44:58;;;;;;;;;;;;;;;;;;5044808;22;19925;-60
2021/11/10 15:47:26;;;;;;;;;;;;;;;;;;5033548;28;20035;-59
2021/11/10 15:49:53;;;;;;;;;;;;;;;;;;5044622;28;20004;-59
2021/11/10 15:52:20;;;;;;;;;;;;;;;;;;5047477;28;19925;-62
2021/11/10 15:54:47;;;;;;;;;;;;;;;;;;5022197;28;19952;-60
2021/11/10 15:57:14;;;;;;;;;;;;;;;;;;5017849;28;19935;-62
2021/11/10 15:59:41;;;;;;;;;;;;;;;;;;5021277;28;19975;-59
2021/11/10 16:02:08;;;;;;;;;;;;;;;;;;5024193;28;19929;-59
2021/11/10 16:04:39;;;;;;;;;;;;;;;;;;5030045;28;19941;-59
2021/11/10 16:07:06;;;;;;;;;;;;;;;;;;5016689;28;19961;-61
2021/11/10 16:09:33;;;;;;;;;;;;;;;;;;5008141;28;19929;-61
2021/11/10 16:12:00;;;;;;;;;;;;;;;;;;5006218;28;19984;-59
2021/11/10 16:14:27;;;;;;;;;;;;;;;;;;5005422;28;20296;-57
2021/11/10 16:16:54;;;;;;;;;;;;;;;;;;5000352;28;20374;-58
2021/11/10 16:19:21;;;;;;;;;;;;;;;;;;5003653;28;20524;-60
2021/11/10 16:21:48;;;;;;;;;;;;;;;;;;5004330;28;19929;-59
2021/11/10 16:24:15;;;;;;;;;;;;;;;;;;5003301;28;19929;-58
2021/11/10 16:26:45;;;;;;;;;;;;;;;;;;5008004;28;20361;-59
2021/11/10 16:29:12;;;;;;;;;;;;;;;;;;5007997;28;19925;-60
2021/11/10 16:31:59;;;;;;;;;;;;;;;;;;5003302;28;19965;-59
2021/11/10 16:34:29;;;;;;;;;;;;;;;;;;5005539;28;20370;-54
2021/11/10 16:36:56;;;;;;;;;;;;;;;;;;5005033;28;20077;-58
2021/11/10 16:39:23;;;;;;;;;;;;;;;;;;5006026;28;19948;-60
2021/11/10 16:41:50;;;;;;;;;;;;;;;;;;5009899;28;20008;-60
2021/11/10 16:44:16;;;;;;;;;;;;;;;;;;5003577;28;20371;-59
2021/11/10 16:46:43;;;;;;;;;;;;;;;;;;5010760;28;20468;-60